sensor_id;sensor_type;location;lat;lon;timestamp;pressure;altitude;pressure_sealevel;temperature;humidity
21779;BME280;11050;52.222;20.916;2023-11-21T00:00:19;99434.47;;;2.70;100.00
21779;BME280;11050;52.222;20.916;2023-11-21T00:02:45;99439.66;;;2.72;100.00
21779;BME280;11050;52.222;20.916;2023-11-21T00:05:13;99440.75;;;2.71;100.00
21779;BME280;11050;52.222;20.916;2023-11-21T00:07:43;99448.66;;;2.72;100.00
21779;BME280;11050;52.222;20.916;2023-11-21T00:10:10;99456.78;;;2.72;100.00
21779;BME280;11050;52.222;20.916;2023-11-21T00:12:37;99459.72;;;2.71;100.00
21779;BME280;11050;52.222;20.916;2023-11-21T00:15:04;99451.03;;;2.62;100.00
21779;BME280;11050;52.222;20.916;2023-11-21T00:17:48;99464.41;;;2.64;100.00
21779;BME280;11050;52.222;20.916;2023-11-21T00:20:13;99473.56;;;2.63;100.00
21779;BME280;11050;52.222;20.916;2023-11-21T00:22:39;99469.81;;;2.64;100.00
21779;BME280;11050;52.222;20.916;2023-11-21T00:25:07;99478.94;;;2.69;100.00
21779;BME280;11050;52.222;20.916;2023-11-21T00:27:37;99474.31;;;2.70;100.00
21779;BME280;11050;52.222;20.916;2023-11-21T00:30:04;99470.41;;;2.66;100.00
21779;BME280;11050;52.222;20.916;2023-11-21T00:32:31;99491.94;;;2.61;100.00
21779;BME280;11050;52.222;20.916;2023-11-21T00:34:56;99473.78;;;2.61;100.00
21779;BME280;11050;52.222;20.916;2023-11-21T00:37:22;99474.63;;;2.62;100.00
21779;BME280;11050;52.222;20.916;2023-11-21T00:39:49;99465.28;;;2.58;100.00
21779;BME280;11050;52.222;20.916;2023-11-21T00:42:15;99480.94;;;2.56;100.00
21779;BME280;11050;52.222;20.916;2023-11-21T00:44:40;99484.50;;;2.56;100.00
21779;BME280;11050;52.222;20.916;2023-11-21T00:47:06;99483.66;;;2.56;100.00
21779;BME280;11050;52.222;20.916;2023-11-21T00:49:33;99477.84;;;2.52;100.00
21779;BME280;11050;52.222;20.916;2023-11-21T00:51:59;99487.03;;;2.51;100.00
21779;BME280;11050;52.222;20.916;2023-11-21T00:54:26;99486.78;;;2.53;100.00
21779;BME280;11050;52.222;20.916;2023-11-21T00:56:52;99484.91;;;2.53;100.00
21779;BME280;11050;52.222;20.916;2023-11-21T00:59:18;99498.06;;;2.56;100.00
21779;BME280;11050;52.222;20.916;2023-11-21T01:01:43;99494.94;;;2.53;100.00
21779;BME280;11050;52.222;20.916;2023-11-21T01:04:09;99487.25;;;2.50;100.00
21779;BME280;11050;52.222;20.916;2023-11-21T01:06:36;99493.75;;;2.49;100.00
21779;BME280;11050;52.222;20.916;2023-11-21T01:09:02;99494.16;;;2.46;100.00
21779;BME280;11050;52.222;20.916;2023-11-21T01:11:33;99500.66;;;2.45;100.00
21779;BME280;11050;52.222;20.916;2023-11-21T01:14:01;99502.28;;;2.46;100.00
21779;BME280;11050;52.222;20.916;2023-11-21T01:16:29;99502.75;;;2.43;100.00
21779;BME280;11050;52.222;20.916;2023-11-21T01:18:54;99505.22;;;2.44;100.00
21779;BME280;11050;52.222;20.916;2023-11-21T01:21:20;99508.97;;;2.43;100.00
21779;BME280;11050;52.222;20.916;2023-11-21T01:23:46;99510.03;;;2.42;100.00
21779;BME280;11050;52.222;20.916;2023-11-21T01:26:13;99509.22;;;2.42;100.00
21779;BME280;11050;52.222;20.916;2023-11-21T01:28:38;99508.59;;;2.40;100.00
21779;BME280;11050;52.222;20.916;2023-11-21T01:31:04;99508.97;;;2.43;100.00
21779;BME280;11050;52.222;20.916;2023-11-21T01:33:30;99510.88;;;2.43;100.00
21779;BME280;11050;52.222;20.916;2023-11-21T01:35:55;99516.06;;;2.44;100.00
21779;BME280;11050;52.222;20.916;2023-11-21T01:38:21;99512.75;;;2.42;100.00
21779;BME280;11050;52.222;20.916;2023-11-21T01:40:48;99515.00;;;2.45;100.00
21779;BME280;11050;52.222;20.916;2023-11-21T01:43:13;99510.03;;;2.42;100.00
21779;BME280;11050;52.222;20.916;2023-11-21T01:45:39;99511.69;;;2.43;100.00
21779;BME280;11050;52.222;20.916;2023-11-21T01:48:05;99517.53;;;2.47;100.00
21779;BME280;11050;52.222;20.916;2023-11-21T01:50:32;99513.38;;;2.44;100.00
21779;BME280;11050;52.222;20.916;2023-11-21T01:52:59;99514.84;;;2.40;100.00
21779;BME280;11050;52.222;20.916;2023-11-21T01:55:26;99517.56;;;2.40;100.00
21779;BME280;11050;52.222;20.916;2023-11-21T01:57:53;99507.97;;;2.38;100.00
21779;BME280;11050;52.222;20.916;2023-11-21T02:00:19;99511.59;;;2.32;100.00
21779;BME280;11050;52.222;20.916;2023-11-21T02:02:47;99517.66;;;2.27;100.00
21779;BME280;11050;52.222;20.916;2023-11-21T02:05:16;99521.03;;;2.23;100.00
21779;BME280;11050;52.222;20.916;2023-11-21T02:07:44;99517.94;;;2.19;100.00
21779;BME280;11050;52.222;20.916;2023-11-21T02:10:14;99519.22;;;2.17;100.00
21779;BME280;11050;52.222;20.916;2023-11-21T02:12:41;99519.22;;;2.17;100.00
21779;BME280;11050;52.222;20.916;2023-11-21T02:15:09;99519.41;;;2.15;100.00
21779;BME280;11050;52.222;20.916;2023-11-21T02:17:42;99527.34;;;2.17;100.00
21779;BME280;11050;52.222;20.916;2023-11-21T02:20:12;99524.03;;;2.15;100.00
21779;BME280;11050;52.222;20.916;2023-11-21T02:22:42;99535.47;;;2.17;100.00
21779;BME280;11050;52.222;20.916;2023-11-21T02:25:08;99534.63;;;2.16;100.00
21779;BME280;11050;52.222;20.916;2023-11-21T02:27:34;99539.00;;;2.17;100.00
21779;BME280;11050;52.222;20.916;2023-11-21T02:30:00;99538.00;;;2.12;100.00
21779;BME280;11050;52.222;20.916;2023-11-21T02:32:26;99538.84;;;2.06;100.00
21779;BME280;11050;52.222;20.916;2023-11-21T02:34:52;99529.91;;;2.05;100.00
21779;BME280;11050;52.222;20.916;2023-11-21T02:37:21;99527.44;;;2.04;100.00
21779;BME280;11050;52.222;20.916;2023-11-21T02:39:47;99533.03;;;2.09;100.00
21779;BME280;11050;52.222;20.916;2023-11-21T02:42:12;99532.41;;;2.07;100.00
21779;BME280;11050;52.222;20.916;2023-11-21T02:44:38;99538.44;;;2.09;100.00
21779;BME280;11050;52.222;20.916;2023-11-21T02:47:04;99538.91;;;1.99;100.00
21779;BME280;11050;52.222;20.916;2023-11-21T02:49:29;99546.19;;;1.99;100.00
21779;BME280;11050;52.222;20.916;2023-11-21T02:51:56;99540.16;;;1.97;100.00
21779;BME280;11050;52.222;20.916;2023-11-21T02:54:22;99538.53;;;1.96;100.00
21779;BME280;11050;52.222;20.916;2023-11-21T02:56:48;99543.31;;;1.93;100.00
21779;BME280;11050;52.222;20.916;2023-11-21T02:59:15;99542.09;;;1.89;100.00
21779;BME280;11050;52.222;20.916;2023-11-21T03:01:41;99549.16;;;1.90;100.00
21779;BME280;11050;52.222;20.916;2023-11-21T03:04:07;99542.47;;;1.93;100.00
21779;BME280;11050;52.222;20.916;2023-11-21T03:06:33;99545.59;;;1.97;100.00
21779;BME280;11050;52.222;20.916;2023-11-21T03:08:59;99542.47;;;1.93;100.00
21779;BME280;11050;52.222;20.916;2023-11-21T03:11:25;99542.53;;;1.86;100.00
21779;BME280;11050;52.222;20.916;2023-11-21T03:13:51;99547.34;;;1.84;100.00
21779;BME280;11050;52.222;20.916;2023-11-21T03:16:16;99553.00;;;1.76;100.00
21779;BME280;11050;52.222;20.916;2023-11-21T03:18:42;99553.00;;;1.70;100.00
21779;BME280;11050;52.222;20.916;2023-11-21T03:21:08;99555.53;;;1.71;100.00
21779;BME280;11050;52.222;20.916;2023-11-21T03:23:37;99552.59;;;1.73;100.00
21779;BME280;11050;52.222;20.916;2023-11-21T03:26:03;99560.09;;;1.71;100.00
21779;BME280;11050;52.222;20.916;2023-11-21T03:28:29;99557.78;;;1.74;100.00
21779;BME280;11050;52.222;20.916;2023-11-21T03:30:58;99563.59;;;1.78;100.00
21779;BME280;11050;52.222;20.916;2023-11-21T03:33:23;99553.00;;;1.76;100.00
21779;BME280;11050;52.222;20.916;2023-11-21T03:35:49;99555.47;;;1.84;100.00
21779;BME280;11050;52.222;20.916;2023-11-21T03:38:15;99552.13;;;1.82;100.00
21779;BME280;11050;52.222;20.916;2023-11-21T03:40:42;99561.75;;;1.78;100.00
21779;BME280;11050;52.222;20.916;2023-11-21T03:43:07;99557.16;;;1.79;100.00
21779;BME280;11050;52.222;20.916;2023-11-21T03:45:33;99560.06;;;1.77;100.00
21779;BME280;11050;52.222;20.916;2023-11-21T03:47:59;99576.75;;;1.74;100.00
21779;BME280;11050;52.222;20.916;2023-11-21T03:50:29;99572.59;;;1.72;100.00
21779;BME280;11050;52.222;20.916;2023-11-21T03:52:54;99564.28;;;1.67;100.00
21779;BME280;11050;52.222;20.916;2023-11-21T03:55:20;99579.91;;;1.71;100.00
21779;BME280;11050;52.222;20.916;2023-11-21T03:57:45;99587.41;;;1.69;100.00
21779;BME280;11050;52.222;20.916;2023-11-21T04:00:12;99587.81;;;1.73;100.00
21779;BME280;11050;52.222;20.916;2023-11-21T04:02:38;99590.72;;;1.71;100.00
21779;BME280;11050;52.222;20.916;2023-11-21T04:05:05;99591.59;;;1.65;100.00
21779;BME280;11050;52.222;20.916;2023-11-21T04:07:32;99589.91;;;1.64;100.00
21779;BME280;11050;52.222;20.916;2023-11-21T04:09:59;99593.50;;;1.58;100.00
21779;BME280;11050;52.222;20.916;2023-11-21T04:12:25;99592.03;;;1.56;100.00
21779;BME280;11050;52.222;20.916;2023-11-21T04:14:51;99596.78;;;1.60;100.00
21779;BME280;11050;52.222;20.916;2023-11-21T04:17:19;99594.69;;;1.62;100.00
21779;BME280;11050;52.222;20.916;2023-11-21T04:19:46;99603.25;;;1.59;100.00
21779;BME280;11050;52.222;20.916;2023-11-21T04:22:12;99604.50;;;1.57;100.00
21779;BME280;11050;52.222;20.916;2023-11-21T04:24:37;99591.84;;;1.51;100.00
21779;BME280;11050;52.222;20.916;2023-11-21T04:27:03;99595.19;;;1.46;100.00
21779;BME280;11050;52.222;20.916;2023-11-21T04:29:29;99598.50;;;1.48;100.00
21779;BME280;11050;52.222;20.916;2023-11-21T04:31:55;99603.31;;;1.46;100.00
21779;BME280;11050;52.222;20.916;2023-11-21T04:34:21;99602.91;;;1.43;100.00
21779;BME280;11050;52.222;20.916;2023-11-21T04:36:46;99608.31;;;1.43;100.00
21779;BME280;11050;52.222;20.916;2023-11-21T04:39:12;99613.06;;;1.47;100.00
21779;BME280;11050;52.222;20.916;2023-11-21T04:41:37;99619.72;;;1.51;100.00
21779;BME280;11050;52.222;20.916;2023-11-21T04:44:06;99625.97;;;1.52;100.00
21779;BME280;11050;52.222;20.916;2023-11-21T04:46:32;99616.41;;;1.49;100.00
21779;BME280;11050;52.222;20.916;2023-11-21T04:48:58;99633.88;;;1.53;100.00
21779;BME280;11050;52.222;20.916;2023-11-21T04:51:24;99627.44;;;1.54;100.00
21779;BME280;11050;52.222;20.916;2023-11-21T04:53:50;99631.41;;;1.52;100.00
21779;BME280;11050;52.222;20.916;2023-11-21T04:56:15;99629.53;;;1.52;100.00
21779;BME280;11050;52.222;20.916;2023-11-21T04:58:42;99619.31;;;1.48;100.00
21779;BME280;11050;52.222;20.916;2023-11-21T05:01:08;99627.22;;;1.49;100.00
21779;BME280;11050;52.222;20.916;2023-11-21T05:03:34;99626.19;;;1.50;100.00
21779;BME280;11050;52.222;20.916;2023-11-21T05:06:00;99632.47;;;1.51;100.00
21779;BME280;11050;52.222;20.916;2023-11-21T05:08:26;99631.22;;;1.47;100.00
21779;BME280;11050;52.222;20.916;2023-11-21T05:10:52;99638.50;;;1.46;100.00
21779;BME280;11050;52.222;20.916;2023-11-21T05:13:20;99643.91;;;1.46;100.00
21779;BME280;11050;52.222;20.916;2023-11-21T05:15:45;99641.59;;;1.50;100.00
21779;BME280;11050;52.222;20.916;2023-11-21T05:18:11;99648.88;;;1.49;100.00
21779;BME280;11050;52.222;20.916;2023-11-21T05:20:39;99645.38;;;1.49;100.00
21779;BME280;11050;52.222;20.916;2023-11-21T05:23:07;99647.88;;;1.50;100.00
21779;BME280;11050;52.222;20.916;2023-11-21T05:25:34;99646.41;;;1.48;100.00
21779;BME280;11050;52.222;20.916;2023-11-21T05:28:00;99647.84;;;1.44;100.00
21779;BME280;11050;52.222;20.916;2023-11-21T05:30:27;99651.41;;;1.38;100.00
21779;BME280;11050;52.222;20.916;2023-11-21T05:32:53;99660.38;;;1.32;100.00
21779;BME280;11050;52.222;20.916;2023-11-21T05:35:19;99662.44;;;1.36;100.00
21779;BME280;11050;52.222;20.916;2023-11-21T05:37:45;99664.94;;;1.38;100.00
21779;BME280;11050;52.222;20.916;2023-11-21T05:40:12;99666.00;;;1.37;100.00
21779;BME280;11050;52.222;20.916;2023-11-21T05:42:40;99670.78;;;1.41;100.00
21779;BME280;11050;52.222;20.916;2023-11-21T05:45:07;99665.38;;;1.41;100.00
21779;BME280;11050;52.222;20.916;2023-11-21T05:47:44;99677.22;;;1.47;100.00
21779;BME280;11050;52.222;20.916;2023-11-21T05:50:13;99668.88;;;1.42;100.00
21779;BME280;11050;52.222;20.916;2023-11-21T05:52:42;99677.63;;;1.44;100.00
21779;BME280;11050;52.222;20.916;2023-11-21T05:55:09;99670.56;;;1.43;100.00
21779;BME280;11050;52.222;20.916;2023-11-21T05:57:36;99683.88;;;1.44;100.00
21779;BME280;11050;52.222;20.916;2023-11-21T06:00:08;99683.88;;;1.44;100.00
21779;BME280;11050;52.222;20.916;2023-11-21T06:02:43;99689.94;;;1.46;100.00
21779;BME280;11050;52.222;20.916;2023-11-21T06:05:09;99691.38;;;1.42;100.00
21779;BME280;11050;52.222;20.916;2023-11-21T06:07:37;99690.38;;;1.43;100.00
21779;BME280;11050;52.222;20.916;2023-11-21T06:10:07;99687.66;;;1.37;100.00
21779;BME280;11050;52.222;20.916;2023-11-21T06:12:37;99698.88;;;1.27;100.00
21779;BME280;11050;52.222;20.916;2023-11-21T06:15:04;99700.34;;;1.23;100.00
21779;BME280;11050;52.222;20.916;2023-11-21T06:17:31;99707.63;;;1.29;100.00
21779;BME280;11050;52.222;20.916;2023-11-21T06:19:57;99708.88;;;1.33;100.00
21779;BME280;11050;52.222;20.916;2023-11-21T06:22:22;99719.28;;;1.36;100.00
21779;BME280;11050;52.222;20.916;2023-11-21T06:24:48;99720.13;;;1.37;100.00
21779;BME280;11050;52.222;20.916;2023-11-21T06:27:14;99719.28;;;1.36;100.00
21779;BME280;11050;52.222;20.916;2023-11-21T06:29:39;99721.19;;;1.36;100.00
21779;BME280;11050;52.222;20.916;2023-11-21T06:32:07;99719.06;;;1.38;100.00
21779;BME280;11050;52.222;20.916;2023-11-21T06:34:33;99723.25;;;1.40;100.00
21779;BME280;11050;52.222;20.916;2023-11-21T06:36:59;99713.03;;;1.42;100.00
21779;BME280;11050;52.222;20.916;2023-11-21T06:39:25;99720.72;;;1.45;100.00
21779;BME280;11050;52.222;20.916;2023-11-21T06:41:50;99723.66;;;1.50;100.00
21779;BME280;11050;52.222;20.916;2023-11-21T06:44:16;99730.31;;;1.54;100.00
21779;BME280;11050;52.222;20.916;2023-11-21T06:46:42;99731.13;;;1.55;100.00
21779;BME280;11050;52.222;20.916;2023-11-21T06:49:08;99724.25;;;1.59;100.00
21779;BME280;11050;52.222;20.916;2023-11-21T06:51:34;99740.91;;;1.62;100.00
21779;BME280;11050;52.222;20.916;2023-11-21T06:54:00;99740.91;;;1.62;100.00
21779;BME280;11050;52.222;20.916;2023-11-21T06:56:25;99752.38;;;1.64;100.00
21779;BME280;11050;52.222;20.916;2023-11-21T06:58:51;99754.66;;;1.61;100.00
21779;BME280;11050;52.222;20.916;2023-11-21T07:01:19;99745.31;;;1.63;100.00
21779;BME280;11050;52.222;20.916;2023-11-21T07:03:45;99754.06;;;1.65;100.00
21779;BME280;11050;52.222;20.916;2023-11-21T07:06:11;99759.88;;;1.62;100.00
21779;BME280;11050;52.222;20.916;2023-11-21T07:08:37;99764.25;;;1.63;100.00
21779;BME280;11050;52.222;20.916;2023-11-21T07:11:04;99773.41;;;1.62;100.00
21779;BME280;11050;52.222;20.916;2023-11-21T07:13:30;99764.66;;;1.60;100.00
21779;BME280;11050;52.222;20.916;2023-11-21T07:16:00;99765.53;;;1.54;100.00
21779;BME280;11050;52.222;20.916;2023-11-21T07:18:25;99775.72;;;1.52;100.00
21779;BME280;11050;52.222;20.916;2023-11-21T07:20:51;99773.22;;;1.51;100.00
21779;BME280;11050;52.222;20.916;2023-11-21T07:23:17;99777.38;;;1.53;100.00
21779;BME280;11050;52.222;20.916;2023-11-21T07:25:43;99766.75;;;1.52;100.00
21779;BME280;11050;52.222;20.916;2023-11-21T07:28:09;99784.66;;;1.59;100.00
21779;BME280;11050;52.222;20.916;2023-11-21T07:30:35;99779.25;;;1.59;100.00
21779;BME280;11050;52.222;20.916;2023-11-21T07:33:01;99778.41;;;1.59;100.00
21779;BME280;11050;52.222;20.916;2023-11-21T07:35:26;99782.38;;;1.63;100.00
21779;BME280;11050;52.222;20.916;2023-11-21T07:37:52;99782.38;;;1.63;100.00
21779;BME280;11050;52.222;20.916;2023-11-21T07:40:18;99772.59;;;1.55;100.00
21779;BME280;11050;52.222;20.916;2023-11-21T07:42:43;99784.47;;;1.61;100.00
21779;BME280;11050;52.222;20.916;2023-11-21T07:45:09;99785.28;;;1.61;100.00
21779;BME280;11050;52.222;20.916;2023-11-21T07:47:35;99780.50;;;1.57;100.00
21779;BME280;11050;52.222;20.916;2023-11-21T07:50:04;99779.66;;;1.63;100.00
21779;BME280;11050;52.222;20.916;2023-11-21T07:52:29;99782.19;;;1.58;100.00
21779;BME280;11050;52.222;20.916;2023-11-21T07:54:55;99791.75;;;1.60;100.00
21779;BME280;11050;52.222;20.916;2023-11-21T07:57:21;99780.09;;;1.53;100.00
21779;BME280;11050;52.222;20.916;2023-11-21T07:59:47;99789.47;;;1.57;100.00
21779;BME280;11050;52.222;20.916;2023-11-21T08:02:13;99795.31;;;1.54;100.00
21779;BME280;11050;52.222;20.916;2023-11-21T08:04:38;99796.31;;;1.53;100.00
21779;BME280;11050;52.222;20.916;2023-11-21T08:07:04;99799.25;;;1.58;100.00
21779;BME280;11050;52.222;20.916;2023-11-21T08:09:30;99801.97;;;1.58;100.00
21779;BME280;11050;52.222;20.916;2023-11-21T08:11:56;99796.53;;;1.65;100.00
21779;BME280;11050;52.222;20.916;2023-11-21T08:14:22;99808.81;;;1.74;100.00
21779;BME280;11050;52.222;20.916;2023-11-21T08:16:50;99805.06;;;1.81;100.00
21779;BME280;11050;52.222;20.916;2023-11-21T08:19:16;99797.56;;;1.83;100.00
21779;BME280;11050;52.222;20.916;2023-11-21T08:21:43;99807.56;;;1.89;100.00
21779;BME280;11050;52.222;20.916;2023-11-21T08:24:10;99806.31;;;1.92;100.00
21779;BME280;11050;52.222;20.916;2023-11-21T08:26:37;99810.47;;;1.94;100.00
21779;BME280;11050;52.222;20.916;2023-11-21T08:29:03;99813.78;;;1.97;100.00
21779;BME280;11050;52.222;20.916;2023-11-21T08:31:29;99804.44;;;1.99;100.00
21779;BME280;11050;52.222;20.916;2023-11-21T08:33:55;99817.31;;;2.10;100.00
21779;BME280;11050;52.222;20.916;2023-11-21T08:36:22;99828.38;;;2.09;100.00
21779;BME280;11050;52.222;20.916;2023-11-21T08:38:50;99826.28;;;2.11;100.00
21779;BME280;11050;52.222;20.916;2023-11-21T08:41:18;99825.66;;;2.15;100.00
21779;BME280;11050;52.222;20.916;2023-11-21T08:43:50;99830.22;;;2.21;100.00
21779;BME280;11050;52.222;20.916;2023-11-21T08:46:16;99821.25;;;2.21;100.00
21779;BME280;11050;52.222;20.916;2023-11-21T08:48:45;99836.06;;;2.25;100.00
21779;BME280;11050;52.222;20.916;2023-11-21T08:51:11;99835.44;;;2.23;100.00
21779;BME280;11050;52.222;20.916;2023-11-21T08:53:38;99834.19;;;2.25;100.00
21779;BME280;11050;52.222;20.916;2023-11-21T08:56:04;99830.63;;;2.25;100.00
21779;BME280;11050;52.222;20.916;2023-11-21T08:58:31;99841.50;;;2.12;100.00
21779;BME280;11050;52.222;20.916;2023-11-21T09:00:58;99843.41;;;2.11;100.00
21779;BME280;11050;52.222;20.916;2023-11-21T09:03:24;99854.03;;;2.13;100.00
21779;BME280;11050;52.222;20.916;2023-11-21T09:05:50;99855.28;;;2.17;100.00
21779;BME280;11050;52.222;20.916;2023-11-21T09:08:16;99866.28;;;2.15;100.00
21779;BME280;11050;52.222;20.916;2023-11-21T09:10:42;99861.31;;;2.19;100.00
21779;BME280;11050;52.222;20.916;2023-11-21T09:13:08;99863.19;;;2.18;100.00
21779;BME280;11050;52.222;20.916;2023-11-21T09:15:35;99851.28;;;2.19;100.00
21779;BME280;11050;52.222;20.916;2023-11-21T09:18:01;99856.72;;;2.26;100.00
21779;BME280;11050;52.222;20.916;2023-11-21T09:20:27;99857.97;;;2.30;100.00
21779;BME280;11050;52.222;20.916;2023-11-21T09:22:53;99849.81;;;2.30;100.00
21779;BME280;11050;52.222;20.916;2023-11-21T09:25:20;99863.16;;;2.31;100.00
21779;BME280;11050;52.222;20.916;2023-11-21T09:27:46;99862.94;;;2.39;100.00
21779;BME280;11050;52.222;20.916;2023-11-21T09:30:12;99857.31;;;2.41;100.00
21779;BME280;11050;52.222;20.916;2023-11-21T09:32:40;99860.19;;;2.46;100.00
21779;BME280;11050;52.222;20.916;2023-11-21T09:35:06;99860.22;;;2.39;100.00
21779;BME280;11050;52.222;20.916;2023-11-21T09:37:35;99871.88;;;2.46;100.00
21779;BME280;11050;52.222;20.916;2023-11-21T09:40:04;99867.50;;;2.52;100.00
21779;BME280;11050;52.222;20.916;2023-11-21T09:42:39;99862.28;;;2.50;100.00
21779;BME280;11050;52.222;20.916;2023-11-21T09:45:28;99854.16;;;2.50;100.00
21779;BME280;11050;52.222;20.916;2023-11-21T09:47:56;99863.50;;;2.61;100.00
21779;BME280;11050;52.222;20.916;2023-11-21T09:50:23;99859.72;;;2.68;100.00
21779;BME280;11050;52.222;20.916;2023-11-21T09:53:18;99859.69;;;2.75;100.00
21779;BME280;11050;52.222;20.916;2023-11-21T09:55:53;99863.00;;;2.83;100.00
21779;BME280;11050;52.222;20.916;2023-11-21T09:58:20;99869.22;;;2.90;100.00
21779;BME280;11050;52.222;20.916;2023-11-21T10:00:50;99867.50;;;3.03;100.00
21779;BME280;11050;52.222;20.916;2023-11-21T10:03:18;99875.63;;;3.09;100.00
21779;BME280;11050;52.222;20.916;2023-11-21T10:05:45;99878.81;;;3.00;100.00
21779;BME280;11050;52.222;20.916;2023-11-21T10:08:15;99877.72;;;3.07;100.00
21779;BME280;11050;52.222;20.916;2023-11-21T10:10:46;99884.97;;;3.13;100.00
21779;BME280;11050;52.222;20.916;2023-11-21T10:13:15;99887.69;;;3.13;100.00
21779;BME280;11050;52.222;20.916;2023-11-21T10:15:49;99884.59;;;3.10;100.00
21779;BME280;11050;52.222;20.916;2023-11-21T10:18:16;99888.38;;;3.09;100.00
21779;BME280;11050;52.222;20.916;2023-11-21T10:20:42;99886.50;;;3.09;100.00
21779;BME280;11050;52.222;20.916;2023-11-21T10:23:09;99878.34;;;3.09;100.00
21779;BME280;11050;52.222;20.916;2023-11-21T10:25:37;99885.81;;;3.20;100.00
21779;BME280;11050;52.222;20.916;2023-11-21T10:28:03;99890.78;;;3.30;100.00
21779;BME280;11050;52.222;20.916;2023-11-21T10:30:37;99884.28;;;3.31;100.00
21779;BME280;11050;52.222;20.916;2023-11-21T10:33:07;99887.59;;;3.39;100.00
21779;BME280;11050;52.222;20.916;2023-11-21T10:35:46;99887.13;;;3.42;100.00
21779;BME280;11050;52.222;20.916;2023-11-21T10:38:13;99888.78;;;3.43;100.00
21779;BME280;11050;52.222;20.916;2023-11-21T10:40:41;99890.31;;;3.39;100.00
21779;BME280;11050;52.222;20.916;2023-11-21T10:43:08;99889.25;;;3.34;100.00
21779;BME280;11050;52.222;20.916;2023-11-21T10:45:37;99889.94;;;3.29;100.00
21779;BME280;11050;52.222;20.916;2023-11-21T10:48:07;99904.34;;;3.30;100.00
21779;BME280;11050;52.222;20.916;2023-11-21T10:50:34;99902.72;;;3.16;100.00
21779;BME280;11050;52.222;20.916;2023-11-21T10:53:03;99903.56;;;3.16;100.00
21779;BME280;11050;52.222;20.916;2023-11-21T10:55:31;99900.41;;;3.19;100.00
21779;BME280;11050;52.222;20.916;2023-11-21T10:58:01;99901.69;;;3.17;100.00
21779;BME280;11050;52.222;20.916;2023-11-21T11:00:29;99905.22;;;3.17;100.00
21779;BME280;11050;52.222;20.916;2023-11-21T11:02:55;99906.50;;;3.15;100.00
21779;BME280;11050;52.222;20.916;2023-11-21T11:05:23;99908.22;;;3.09;100.00
21779;BME280;11050;52.222;20.916;2023-11-21T11:07:59;99909.69;;;3.05;100.00
21779;BME280;11050;52.222;20.916;2023-11-21T11:10:30;99909.06;;;3.03;100.00
21779;BME280;11050;52.222;20.916;2023-11-21T11:12:58;99905.91;;;3.06;100.00
21779;BME280;11050;52.222;20.916;2023-11-21T11:15:26;99903.19;;;3.13;100.00
21779;BME280;11050;52.222;20.916;2023-11-21T11:17:53;99898.16;;;3.16;100.00
21779;BME280;11050;52.222;20.916;2023-11-21T11:20:27;99903.91;;;3.26;100.00
21779;BME280;11050;52.222;20.916;2023-11-21T11:24:20;99913.13;;;3.32;100.00
21779;BME280;11050;52.222;20.916;2023-11-21T11:29:31;99921.50;;;3.17;100.00
21779;BME280;11050;52.222;20.916;2023-11-21T11:35:10;99925.75;;;3.00;100.00
21779;BME280;11050;52.222;20.916;2023-11-21T11:37:43;99916.38;;;2.96;100.00
21779;BME280;11050;52.222;20.916;2023-11-21T11:40:11;99919.72;;;2.98;100.00
21779;BME280;11050;52.222;20.916;2023-11-21T11:42:37;99924.72;;;3.01;100.00
21779;BME280;11050;52.222;20.916;2023-11-21T11:45:17;99929.13;;;2.96;100.00
21779;BME280;11050;52.222;20.916;2023-11-21T11:47:47;99913.91;;;2.88;100.00
21779;BME280;11050;52.222;20.916;2023-11-21T11:50:13;99913.91;;;2.88;100.00
21779;BME280;11050;52.222;20.916;2023-11-21T11:52:50;99923.31;;;2.92;100.00
21779;BME280;11050;52.222;20.916;2023-11-21T11:55:23;99927.09;;;2.84;100.00
21779;BME280;11050;52.222;20.916;2023-11-21T11:57:53;99927.91;;;2.85;100.00
21779;BME280;11050;52.222;20.916;2023-11-21T12:00:34;99925.66;;;2.69;100.00
21779;BME280;11050;52.222;20.916;2023-11-21T12:03:05;99924.22;;;2.60;100.00
21779;BME280;11050;52.222;20.916;2023-11-21T12:05:35;99930.06;;;2.57;100.00
21779;BME280;11050;52.222;20.916;2023-11-21T12:08:06;99928.41;;;2.56;100.00
21779;BME280;11050;52.222;20.916;2023-11-21T12:10:38;99929.44;;;2.61;100.00
21779;BME280;11050;52.222;20.916;2023-11-21T12:13:10;99932.31;;;2.73;100.00
21779;BME280;11050;52.222;20.916;2023-11-21T12:15:38;99942.13;;;2.74;100.00
21779;BME280;11050;52.222;20.916;2023-11-21T12:18:06;99944.44;;;2.70;100.00
21779;BME280;11050;52.222;20.916;2023-11-21T12:20:33;99941.94;;;2.62;100.00
21779;BME280;11050;52.222;20.916;2023-11-21T12:23:05;99949.88;;;2.64;100.00
21779;BME280;11050;52.222;20.916;2023-11-21T12:25:32;99950.72;;;2.58;100.00
21779;BME280;11050;52.222;20.916;2023-11-21T12:27:59;99946.72;;;2.60;100.00
21779;BME280;11050;52.222;20.916;2023-11-21T12:30:33;99952.78;;;2.62;100.00
21779;BME280;11050;52.222;20.916;2023-11-21T12:33:04;99955.91;;;2.53;100.00
21779;BME280;11050;52.222;20.916;2023-11-21T12:35:34;99953.22;;;2.53;100.00
21779;BME280;11050;52.222;20.916;2023-11-21T12:38:04;99949.25;;;2.55;100.00
21779;BME280;11050;52.222;20.916;2023-11-21T12:40:30;99954.88;;;2.47;100.00
21779;BME280;11050;52.222;20.916;2023-11-21T12:42:58;99954.28;;;2.52;100.00
21779;BME280;11050;52.222;20.916;2023-11-21T12:45:27;99955.28;;;2.51;100.00
21779;BME280;11050;52.222;20.916;2023-11-21T12:48:05;99954.69;;;2.49;100.00
21779;BME280;11050;52.222;20.916;2023-11-21T12:50:37;99963.66;;;2.49;100.00
21779;BME280;11050;52.222;20.916;2023-11-21T12:53:12;99960.94;;;2.56;100.00
21779;BME280;11050;52.222;20.916;2023-11-21T12:55:39;99960.50;;;2.59;100.00
21779;BME280;11050;52.222;20.916;2023-11-21T12:58:08;99961.75;;;2.63;100.00